createdAt,value
2023-02-05T00:00:40.597Z,54.60
2023-02-05T00:03:07.706Z,54.60
2023-02-05T00:05:34.811Z,54.60
2023-02-05T00:08:02.420Z,54.60
2023-02-05T00:10:29.418Z,54.60
2023-02-05T00:12:56.283Z,54.50
2023-02-05T00:15:23.119Z,54.50
2023-02-05T00:17:50.033Z,54.50
2023-02-05T00:20:17.020Z,54.60
2023-02-05T00:22:43.904Z,54.50
2023-02-05T00:25:10.803Z,54.40
2023-02-05T00:27:37.649Z,54.20
2023-02-05T00:30:04.791Z,54.20
2023-02-05T00:32:31.679Z,54.30
2023-02-05T00:34:58.480Z,54.50
2023-02-05T00:37:25.369Z,54.40
2023-02-05T00:39:52.192Z,54.20
2023-02-05T00:42:19.152Z,54.20
2023-02-05T00:44:46.019Z,54.20
2023-02-05T00:47:12.901Z,54.10
2023-02-05T00:49:39.768Z,53.90
2023-02-05T00:52:06.701Z,54.00
2023-02-05T00:54:33.526Z,54.20
2023-02-05T00:57:00.473Z,54.20
2023-02-05T00:59:27.363Z,54.30
2023-02-05T01:01:54.228Z,54.20
2023-02-05T01:04:21.166Z,54.20
2023-02-05T01:06:48.013Z,54.30
2023-02-05T01:09:14.874Z,54.20
2023-02-05T01:11:41.782Z,54.20
2023-02-05T01:14:08.707Z,54.20
2023-02-05T01:16:35.649Z,54.30
2023-02-05T01:19:02.499Z,54.30
2023-02-05T01:21:29.869Z,54.20
2023-02-05T01:23:57.986Z,54.20
2023-02-05T01:26:24.936Z,54.20
2023-02-05T01:28:51.859Z,54.10
2023-02-05T01:31:20.774Z,54.10
2023-02-05T01:33:47.732Z,54.20
2023-02-05T01:36:14.615Z,54.30
2023-02-05T01:38:41.433Z,54.30
2023-02-05T01:41:09.369Z,54.30
2023-02-05T01:43:36.241Z,54.30
2023-02-05T01:46:26.449Z,54.20
2023-02-05T01:48:56.009Z,54.50
2023-02-05T01:51:23.703Z,54.60
2023-02-05T01:53:50.779Z,54.70
2023-02-05T01:56:21.385Z,54.50
2023-02-05T01:58:51.214Z,54.50
2023-02-05T02:01:18.072Z,54.30
2023-02-05T02:03:45.393Z,54.30
2023-02-05T02:06:12.315Z,54.40
2023-02-05T02:08:39.169Z,54.50
2023-02-05T02:11:07.300Z,54.50
2023-02-05T02:13:36.589Z,54.60
2023-02-05T02:16:04.786Z,54.70
2023-02-05T02:18:33.337Z,54.90
2023-02-05T02:21:19.406Z,54.80
2023-02-05T02:24:05.021Z,54.90
2023-02-05T02:26:44.497Z,54.90
2023-02-05T02:29:18.500Z,55.00
2023-02-05T02:31:54.182Z,55.40
2023-02-05T02:34:24.974Z,55.50
2023-02-05T02:37:09.196Z,55.50
2023-02-05T02:39:48.384Z,55.50
2023-02-05T02:42:16.739Z,55.50
2023-02-05T02:44:47.608Z,55.60
2023-02-05T02:47:17.843Z,55.70
2023-02-05T02:49:47.675Z,55.80
2023-02-05T02:52:17.033Z,55.80
2023-02-05T02:54:46.852Z,55.90
2023-02-05T02:57:15.267Z,55.90
2023-02-05T02:59:43.043Z,56.50
2023-02-05T03:02:13.678Z,56.60
2023-02-05T03:04:41.829Z,56.80
2023-02-05T03:07:17.527Z,56.70
2023-02-05T03:10:07.512Z,56.80
2023-02-05T03:12:34.641Z,56.70
2023-02-05T03:15:01.597Z,56.60
2023-02-05T03:17:29.019Z,56.60
2023-02-05T03:20:16.160Z,56.60
2023-02-05T03:22:43.009Z,56.70
2023-02-05T03:25:10.500Z,56.90
2023-02-05T03:27:37.668Z,56.90
2023-02-05T03:30:05.464Z,56.90
2023-02-05T03:32:39.623Z,56.90
2023-02-05T03:35:06.439Z,57.10
2023-02-05T03:37:36.541Z,57.30
2023-02-05T03:40:06.438Z,57.30
2023-02-05T03:42:36.264Z,57.30
2023-02-05T03:45:21.869Z,57.10
2023-02-05T03:47:54.534Z,57.40
2023-02-05T03:50:24.700Z,57.30
2023-02-05T03:52:55.236Z,57.00
2023-02-05T03:55:29.451Z,56.90
2023-02-05T03:58:04.715Z,56.90
2023-02-05T04:00:32.459Z,56.70
2023-02-05T04:02:59.288Z,56.60
2023-02-05T04:05:26.169Z,56.30
2023-02-05T04:07:53.153Z,56.30
2023-02-05T04:10:20.054Z,56.50
2023-02-05T04:12:46.903Z,56.60
2023-02-05T04:15:13.792Z,56.80
2023-02-05T04:17:40.731Z,56.90
2023-02-05T04:20:07.960Z,57.00
2023-02-05T04:22:34.880Z,57.10
2023-02-05T04:25:01.777Z,57.20
2023-02-05T04:27:28.708Z,57.20
2023-02-05T04:29:55.612Z,57.60
2023-02-05T04:32:22.427Z,57.50
2023-02-05T04:34:49.316Z,57.60
2023-02-05T04:37:16.217Z,57.70
2023-02-05T04:39:43.014Z,57.70
2023-02-05T04:42:09.882Z,57.60
2023-02-05T04:44:36.769Z,57.90
2023-02-05T04:47:03.691Z,58.10
2023-02-05T04:49:32.013Z,58.20
2023-02-05T04:51:58.907Z,58.00
2023-02-05T04:54:25.783Z,58.10
2023-02-05T04:56:52.666Z,58.30
2023-02-05T04:59:19.810Z,58.50
2023-02-05T05:01:46.674Z,58.30
2023-02-05T05:04:13.624Z,58.30
2023-02-05T05:06:40.448Z,58.50
2023-02-05T05:09:07.394Z,58.50
2023-02-05T05:11:34.208Z,58.60
2023-02-05T05:14:01.106Z,58.60
2023-02-05T05:16:28.059Z,58.60
2023-02-05T05:18:54.965Z,58.60
2023-02-05T05:21:21.881Z,58.80
2023-02-05T05:23:48.778Z,58.70
2023-02-05T05:26:15.678Z,58.80
2023-02-05T05:28:42.620Z,59.00
2023-02-05T05:31:10.557Z,59.10
2023-02-05T05:33:38.086Z,59.00
2023-02-05T05:36:05.742Z,59.00
2023-02-05T05:38:32.853Z,59.10
2023-02-05T05:41:18.481Z,59.40
2023-02-05T05:43:48.120Z,59.50
2023-02-05T05:46:23.054Z,59.20
2023-02-05T05:48:51.025Z,59.40
2023-02-05T05:51:18.466Z,59.60
2023-02-05T05:53:45.479Z,59.50
2023-02-05T05:56:12.740Z,59.40
2023-02-05T05:58:39.612Z,59.20
2023-02-05T06:01:07.357Z,59.50
2023-02-05T06:03:34.261Z,59.40
2023-02-05T06:06:03.100Z,59.40
2023-02-05T06:08:30.372Z,59.50
2023-02-05T06:10:57.477Z,59.70
2023-02-05T06:13:24.940Z,59.80
2023-02-05T06:15:52.192Z,59.70
2023-02-05T06:18:19.129Z,59.70
2023-02-05T06:20:46.019Z,59.80
2023-02-05T06:23:12.906Z,59.80
2023-02-05T06:25:39.942Z,59.90
2023-02-05T06:28:08.021Z,60.00
2023-02-05T06:30:34.935Z,60.20
2023-02-05T06:33:01.749Z,60.30
2023-02-05T06:35:28.612Z,60.50
2023-02-05T06:37:57.640Z,60.50
2023-02-05T06:40:26.101Z,60.50
2023-02-05T06:42:53.661Z,60.40
2023-02-05T06:45:20.580Z,60.50
2023-02-05T06:47:47.679Z,60.40
2023-02-05T06:50:14.678Z,60.00
2023-02-05T06:52:41.687Z,59.90
2023-02-05T06:55:08.770Z,60.20
2023-02-05T06:57:35.672Z,60.50
2023-02-05T07:00:02.586Z,60.30
2023-02-05T07:02:29.502Z,60.10
2023-02-05T07:04:56.362Z,60.20
2023-02-05T07:07:23.317Z,60.80
2023-02-05T07:09:50.421Z,60.90
2023-02-05T07:12:17.258Z,60.70
2023-02-05T07:14:44.387Z,60.50
2023-02-05T07:17:11.361Z,60.40
2023-02-05T07:19:38.277Z,60.50
2023-02-05T07:22:05.376Z,60.50
2023-02-05T07:24:32.374Z,60.60
2023-02-05T07:26:59.255Z,60.80
2023-02-05T07:29:26.295Z,60.90
2023-02-05T07:31:53.243Z,60.90
2023-02-05T07:34:21.033Z,61.10
2023-02-05T07:36:51.381Z,61.10
2023-02-05T07:39:18.952Z,61.30
2023-02-05T07:41:45.917Z,61.60
2023-02-05T07:44:13.360Z,61.50
2023-02-05T07:46:40.325Z,61.40
2023-02-05T07:49:07.451Z,61.50
2023-02-05T07:51:35.320Z,61.60
2023-02-05T07:54:06.508Z,61.50
2023-02-05T07:56:33.372Z,61.40
2023-02-05T07:59:00.352Z,61.50
2023-02-05T08:01:27.220Z,61.50
2023-02-05T08:03:55.726Z,61.50
2023-02-05T08:06:22.748Z,61.50
2023-02-05T08:08:49.845Z,61.20
2023-02-05T08:11:17.206Z,61.20
2023-02-05T08:13:44.775Z,61.30
2023-02-05T08:16:11.931Z,61.10
2023-02-05T08:18:38.883Z,61.00
2023-02-05T08:21:05.938Z,60.80
2023-02-05T08:23:32.926Z,60.70
2023-02-05T08:26:00.061Z,60.40
2023-02-05T08:28:28.217Z,60.30
2023-02-05T08:30:56.797Z,60.10
2023-02-05T08:33:24.224Z,60.00
2023-02-05T08:35:51.382Z,59.80
2023-02-05T08:38:18.994Z,59.70
2023-02-05T08:40:45.930Z,59.70
2023-02-05T08:43:12.919Z,59.70
2023-02-05T08:45:40.343Z,59.90
2023-02-05T08:48:07.349Z,60.10
2023-02-05T08:50:34.224Z,60.10
2023-02-05T08:53:01.234Z,60.00
2023-02-05T08:55:28.212Z,60.00
2023-02-05T08:57:55.702Z,59.00
2023-02-05T09:00:22.666Z,58.80
2023-02-05T09:02:50.088Z,58.90
2023-02-05T09:05:17.342Z,58.90
2023-02-05T09:07:44.272Z,59.00
2023-02-05T09:10:12.199Z,58.90
2023-02-05T09:12:39.565Z,58.00
2023-02-05T09:15:07.038Z,57.20
2023-02-05T09:17:33.868Z,55.90
2023-02-05T09:20:01.094Z,54.30
2023-02-05T09:22:28.105Z,52.70
2023-02-05T09:24:55.035Z,51.40
2023-02-05T09:27:28.765Z,50.30
2023-02-05T09:30:02.486Z,50.80
2023-02-05T09:32:29.313Z,52.80
2023-02-05T09:35:02.455Z,49.70
2023-02-05T09:37:29.358Z,47.60
2023-02-05T09:42:48.978Z,44.40
2023-02-05T09:45:36.232Z,43.10
2023-02-05T09:48:17.770Z,42.50
2023-02-05T09:50:44.839Z,41.90
2023-02-05T09:53:13.478Z,41.00
2023-02-05T09:55:42.590Z,40.10
2023-02-05T09:58:15.103Z,39.50
2023-02-05T10:00:49.656Z,39.00
2023-02-05T10:03:42.423Z,38.50
2023-02-05T10:06:12.171Z,38.10
2023-02-05T10:08:48.253Z,37.80
2023-02-05T10:11:31.534Z,37.50
2023-02-05T10:14:21.159Z,37.70
2023-02-05T10:16:54.080Z,37.80
2023-02-05T10:19:53.341Z,37.60
2023-02-05T10:22:20.242Z,37.10
2023-02-05T10:25:05.836Z,36.80
2023-02-05T10:27:32.721Z,36.70
2023-02-05T10:30:15.178Z,37.40
2023-02-05T10:32:42.040Z,37.60
2023-02-05T10:35:19.010Z,37.40
2023-02-05T10:37:50.843Z,37.40
2023-02-05T10:40:20.187Z,37.70
2023-02-05T10:42:51.787Z,37.90
2023-02-05T10:45:21.749Z,37.90
2023-02-05T10:47:48.639Z,38.00
2023-02-05T10:50:34.428Z,38.00
2023-02-05T10:53:01.656Z,37.90
2023-02-05T10:55:28.886Z,37.70
2023-02-05T10:57:55.785Z,37.80
2023-02-05T11:00:23.269Z,37.90
2023-02-05T11:02:51.682Z,37.90
2023-02-05T11:05:34.706Z,37.70
2023-02-05T11:08:01.696Z,37.70
2023-02-05T11:10:29.637Z,37.90
2023-02-05T11:13:16.400Z,37.90
2023-02-05T11:15:56.963Z,37.60
2023-02-05T11:18:25.257Z,37.50
2023-02-05T11:20:59.828Z,37.40
2023-02-05T11:23:29.645Z,37.60
2023-02-05T11:26:00.809Z,37.50
2023-02-05T11:28:36.053Z,37.20
2023-02-05T11:31:19.693Z,36.90
2023-02-05T11:33:47.075Z,37.50
2023-02-05T11:36:16.626Z,38.10
2023-02-05T11:38:57.311Z,38.50
2023-02-05T11:41:27.247Z,38.40
2023-02-05T11:43:54.932Z,38.70
2023-02-05T11:46:23.082Z,39.00
2023-02-05T11:48:58.057Z,39.00
2023-02-05T11:51:40.493Z,39.20
2023-02-05T11:54:16.526Z,39.50
2023-02-05T11:56:43.323Z,39.60
2023-02-05T11:59:22.044Z,39.50
2023-02-05T12:01:49.000Z,39.40
2023-02-05T12:04:18.212Z,39.20
2023-02-05T12:06:52.204Z,39.10
2023-02-05T12:09:27.617Z,39.10
2023-02-05T12:12:18.843Z,39.00
2023-02-05T12:14:51.593Z,38.90
2023-02-05T12:17:34.142Z,38.80
2023-02-05T12:20:01.054Z,38.70
2023-02-05T12:22:37.103Z,38.70
2023-02-05T12:25:22.984Z,38.90
2023-02-05T12:27:57.589Z,39.00
2023-02-05T12:30:39.898Z,39.20
2023-02-05T12:33:21.942Z,39.40
2023-02-05T12:36:07.660Z,39.80
2023-02-05T12:38:48.371Z,40.10
2023-02-05T12:41:24.318Z,40.40
2023-02-05T12:43:54.753Z,40.70
2023-02-05T12:46:36.204Z,40.70
2023-02-05T12:49:13.631Z,40.60
2023-02-05T12:51:46.353Z,40.40
2023-02-05T12:54:27.692Z,40.40
2023-02-05T12:57:04.069Z,40.60
2023-02-05T12:59:30.897Z,40.70
2023-02-05T13:02:15.810Z,40.80
2023-02-05T13:04:54.716Z,40.90
2023-02-05T13:07:26.929Z,40.90
2023-02-05T13:09:56.655Z,40.90
2023-02-05T13:12:26.741Z,40.90
2023-02-05T13:15:08.973Z,40.90
2023-02-05T13:17:38.430Z,40.80
2023-02-05T13:20:07.576Z,40.90
2023-02-05T13:22:57.763Z,41.10
2023-02-05T13:25:38.595Z,40.90
2023-02-05T13:28:35.900Z,41.00
2023-02-05T13:31:04.700Z,40.90
2023-02-05T13:33:31.794Z,41.20
2023-02-05T13:36:17.605Z,41.40
2023-02-05T13:38:56.600Z,41.60
2023-02-05T13:41:43.216Z,41.80
2023-02-05T13:44:13.072Z,41.90
2023-02-05T13:46:52.134Z,41.80
2023-02-05T13:49:37.716Z,41.90
2023-02-05T13:52:04.600Z,42.10
2023-02-05T13:54:49.889Z,42.20
2023-02-05T13:57:19.903Z,42.30
2023-02-05T13:59:51.684Z,42.30
2023-02-05T14:02:27.481Z,42.50
2023-02-05T14:04:54.988Z,42.20
2023-02-05T14:07:26.456Z,42.00
2023-02-05T14:09:56.663Z,42.00
2023-02-05T14:12:25.683Z,42.00
2023-02-05T14:15:11.296Z,41.80
2023-02-05T14:17:38.149Z,41.70
2023-02-05T14:20:24.982Z,41.70
2023-02-05T14:22:51.847Z,41.70
2023-02-05T14:25:38.348Z,41.60
2023-02-05T14:28:17.619Z,41.60
2023-02-05T14:30:57.552Z,41.60
2023-02-05T14:33:27.708Z,41.60
2023-02-05T14:36:17.980Z,41.50
2023-02-05T14:39:06.122Z,41.70
2023-02-05T14:41:39.155Z,41.80
2023-02-05T14:44:16.498Z,41.80
2023-02-05T14:46:44.670Z,41.80
2023-02-05T14:49:22.554Z,42.00
2023-02-05T14:51:52.400Z,42.00
2023-02-05T14:54:24.050Z,41.80
2023-02-05T14:56:52.593Z,42.00
2023-02-05T14:59:22.576Z,42.10
2023-02-05T15:01:50.884Z,42.20
2023-02-05T15:04:23.159Z,42.30
2023-02-05T15:06:50.320Z,42.30
2023-02-05T15:09:21.021Z,42.40
2023-02-05T15:12:10.991Z,42.50
2023-02-05T15:14:50.624Z,42.50
2023-02-05T15:17:17.814Z,42.60
2023-02-05T15:19:52.995Z,42.70
2023-02-05T15:22:25.792Z,42.80
2023-02-05T15:24:54.099Z,42.90
2023-02-05T15:27:23.431Z,42.90
2023-02-05T15:29:57.269Z,43.10
2023-02-05T15:32:24.340Z,43.10
2023-02-05T15:34:55.914Z,43.20
2023-02-05T15:37:28.476Z,43.30
2023-02-05T15:39:56.642Z,43.40
2023-02-05T15:42:28.721Z,43.40
2023-02-05T15:44:55.721Z,43.50
2023-02-05T15:47:24.003Z,43.70
2023-02-05T15:49:56.984Z,43.80
2023-02-05T15:52:23.893Z,44.10
2023-02-05T15:54:51.868Z,44.30
2023-02-05T15:57:23.383Z,44.70
2023-02-05T15:59:51.972Z,45.20
2023-02-05T16:02:23.390Z,45.50
2023-02-05T16:05:01.589Z,45.80
2023-02-05T16:07:36.336Z,46.20
2023-02-05T16:10:14.956Z,46.50
2023-02-05T16:12:56.906Z,46.80
2023-02-05T16:15:24.322Z,47.00
2023-02-05T16:17:51.812Z,47.20
2023-02-05T16:20:26.808Z,47.50
2023-02-05T16:23:05.290Z,47.80
2023-02-05T16:25:35.462Z,48.00
2023-02-05T16:28:05.210Z,48.10
2023-02-05T16:30:40.706Z,48.30
2023-02-05T16:33:08.568Z,48.50
2023-02-05T16:35:37.751Z,48.60
2023-02-05T16:38:09.225Z,48.80
2023-02-05T16:40:40.855Z,48.80
2023-02-05T16:43:20.596Z,48.90
2023-02-05T16:46:06.350Z,49.00
2023-02-05T16:48:34.802Z,49.10
2023-02-05T16:51:01.733Z,49.60
2023-02-05T16:53:32.802Z,49.90
2023-02-05T16:56:03.089Z,50.00
2023-02-05T16:58:36.122Z,50.10
2023-02-05T17:01:04.259Z,50.20
2023-02-05T17:03:35.179Z,50.40
2023-02-05T17:06:03.245Z,50.80
2023-02-05T17:08:32.475Z,50.70
2023-02-05T17:11:01.098Z,50.60
2023-02-05T17:13:41.930Z,50.70
2023-02-05T17:16:28.572Z,50.80
2023-02-05T17:18:55.445Z,51.10
2023-02-05T17:21:24.163Z,51.20
2023-02-05T17:23:51.930Z,51.40
2023-02-05T17:26:19.291Z,51.40
2023-02-05T17:28:50.201Z,51.50
2023-02-05T17:31:17.974Z,51.50
2023-02-05T17:33:49.722Z,51.80
2023-02-05T17:36:17.679Z,51.90
2023-02-05T17:38:45.354Z,52.00
2023-02-05T17:41:35.202Z,52.20
2023-02-05T17:44:02.111Z,52.40
2023-02-05T17:46:28.992Z,52.70
2023-02-05T17:48:55.945Z,52.70
2023-02-05T17:51:26.675Z,52.80
2023-02-05T17:53:53.602Z,52.90
2023-02-05T17:56:21.492Z,52.80
2023-02-05T17:58:49.160Z,52.90
2023-02-05T18:01:16.241Z,53.00
2023-02-05T18:03:43.155Z,53.20
2023-02-05T18:06:12.172Z,53.30
2023-02-05T18:08:39.072Z,53.50
2023-02-05T18:11:05.932Z,53.60
2023-02-05T18:13:32.798Z,53.50
2023-02-05T18:16:03.537Z,53.40
2023-02-05T18:18:31.507Z,53.20
2023-02-05T18:20:58.529Z,53.40
2023-02-05T18:23:29.202Z,53.70
2023-02-05T18:25:57.158Z,53.90
2023-02-05T18:28:24.095Z,53.80
2023-02-05T18:30:58.051Z,53.90
2023-02-05T18:33:25.050Z,54.20
2023-02-05T18:35:52.011Z,54.00
2023-02-05T18:38:18.961Z,53.90
2023-02-05T18:40:45.773Z,54.10
2023-02-05T18:43:13.464Z,54.80
2023-02-05T18:45:40.334Z,54.60
2023-02-05T18:48:07.226Z,55.00
2023-02-05T18:50:34.441Z,55.00
2023-02-05T18:53:01.487Z,55.30
2023-02-05T18:55:29.359Z,54.90
2023-02-05T18:57:56.275Z,54.70
2023-02-05T19:00:23.176Z,54.60
2023-02-05T19:02:50.042Z,54.70
2023-02-05T19:05:17.014Z,54.80
2023-02-05T19:07:46.075Z,55.00
2023-02-05T19:10:12.973Z,55.10
2023-02-05T19:12:39.860Z,55.30
2023-02-05T19:15:07.170Z,55.60
2023-02-05T19:17:34.005Z,55.60
2023-02-05T19:20:00.917Z,55.60
2023-02-05T19:22:27.797Z,55.80
2023-02-05T19:24:54.654Z,56.00
2023-02-05T19:27:21.623Z,56.20
2023-02-05T19:29:48.546Z,56.40
2023-02-05T19:32:15.411Z,56.60
2023-02-05T19:34:43.428Z,56.60
2023-02-05T19:37:12.266Z,56.70
2023-02-05T19:39:41.823Z,56.60
2023-02-05T19:42:16.647Z,56.70
2023-02-05T19:44:44.324Z,57.30
2023-02-05T19:47:12.984Z,57.30
2023-02-05T19:49:39.871Z,57.50
2023-02-05T19:52:08.565Z,57.20
2023-02-05T19:54:35.874Z,56.70
2023-02-05T19:57:02.873Z,56.80
2023-02-05T19:59:29.819Z,56.50
2023-02-05T20:01:56.863Z,56.70
2023-02-05T20:04:25.021Z,56.60
2023-02-05T20:06:56.059Z,56.60
2023-02-05T20:09:23.051Z,56.50
2023-02-05T20:11:52.643Z,56.50
2023-02-05T20:14:19.596Z,56.60
2023-02-05T20:16:47.056Z,56.70
2023-02-05T20:19:14.877Z,56.80
2023-02-05T20:21:42.066Z,56.90
2023-02-05T20:24:09.528Z,57.10
2023-02-05T20:26:37.440Z,57.30
2023-02-05T20:29:22.820Z,57.30
2023-02-05T20:31:51.282Z,57.20
2023-02-05T20:34:30.673Z,57.40
2023-02-05T20:36:59.579Z,57.50
2023-02-05T20:39:30.152Z,57.30
2023-02-05T20:41:58.145Z,57.20
2023-02-05T20:44:28.974Z,57.10
2023-02-05T20:46:55.895Z,57.10
2023-02-05T20:49:22.859Z,56.90
2023-02-05T20:51:49.790Z,56.80
2023-02-05T20:54:16.734Z,56.80
2023-02-05T20:56:43.629Z,56.60
2023-02-05T20:59:11.375Z,56.90
2023-02-05T21:01:39.410Z,56.90
2023-02-05T21:04:07.221Z,56.60
2023-02-05T21:06:39.183Z,56.50
2023-02-05T21:09:06.386Z,56.50
2023-02-05T21:11:33.440Z,56.10
2023-02-05T21:14:00.340Z,55.90
2023-02-05T21:16:28.251Z,55.90
2023-02-05T21:18:55.770Z,56.00
2023-02-05T21:21:24.463Z,55.80
2023-02-05T21:23:56.157Z,55.30
2023-02-05T21:26:34.015Z,55.20
2023-02-05T21:29:03.126Z,55.40
2023-02-05T21:31:33.997Z,55.00
2023-02-05T21:34:01.666Z,55.20
2023-02-05T21:36:29.018Z,55.20
2023-02-05T21:38:55.918Z,55.20
2023-02-05T21:41:23.145Z,55.00
2023-02-05T21:43:53.875Z,55.00
2023-02-05T21:46:21.287Z,55.10
2023-02-05T21:48:51.937Z,55.00
2023-02-05T21:51:20.032Z,55.00
2023-02-05T21:53:46.873Z,54.90
2023-02-05T21:56:15.482Z,54.80
2023-02-05T21:58:42.456Z,54.80
2023-02-05T22:01:16.400Z,54.80
2023-02-05T22:03:44.042Z,54.80
2023-02-05T22:06:10.946Z,54.90
2023-02-05T22:08:38.411Z,55.00
2023-02-05T22:11:06.762Z,55.10
2023-02-05T22:13:34.841Z,55.00
2023-02-05T22:16:09.170Z,55.00
2023-02-05T22:18:36.289Z,55.00
2023-02-05T22:21:22.239Z,55.10
2023-02-05T22:23:50.367Z,55.20
2023-02-05T22:26:18.503Z,55.20
2023-02-05T22:28:45.895Z,55.10
2023-02-05T22:31:14.411Z,55.10
2023-02-05T22:33:42.012Z,55.10
2023-02-05T22:36:09.663Z,55.10
2023-02-05T22:38:37.338Z,55.20
2023-02-05T22:41:10.856Z,55.20
2023-02-05T22:43:38.050Z,55.20
2023-02-05T22:46:06.342Z,55.30
2023-02-05T22:48:36.791Z,55.40
2023-02-05T22:51:04.369Z,55.60
2023-02-05T22:53:31.497Z,55.50
2023-02-05T22:56:03.904Z,55.70
2023-02-05T22:58:30.943Z,55.80
2023-02-05T23:00:58.323Z,55.80
2023-02-05T23:03:25.233Z,55.90
2023-02-05T23:05:52.263Z,56.00
2023-02-05T23:08:19.095Z,56.00
2023-02-05T23:10:46.101Z,56.00
2023-02-05T23:13:12.985Z,56.00
2023-02-05T23:15:39.822Z,56.00
2023-02-05T23:18:06.768Z,56.10
2023-02-05T23:20:33.620Z,56.20
2023-02-05T23:23:00.464Z,56.10
2023-02-05T23:25:27.298Z,56.10
2023-02-05T23:27:54.239Z,56.10
2023-02-05T23:30:21.117Z,56.20
2023-02-05T23:32:47.965Z,56.40
2023-02-05T23:35:14.858Z,56.20
2023-02-05T23:37:41.730Z,56.00
2023-02-05T23:40:08.954Z,56.10
2023-02-05T23:42:39.462Z,56.20
2023-02-05T23:45:06.476Z,56.00
2023-02-05T23:47:33.309Z,56.00
2023-02-05T23:50:00.224Z,56.00
2023-02-05T23:52:27.061Z,56.30
2023-02-05T23:54:53.965Z,56.60
2023-02-05T23:57:20.857Z,56.40
2023-02-05T23:59:47.692Z,56.20
